Time;durP1;ratioP1;P1;durP2;ratioP2;P2;SDS_P1;SDS_P2;PMS_P1;PMS_P2;Temp;Humidity;BMP_temperature;BMP_pressure;BME280_temperature;BME280_humidity;BME280_pressure;Samples;Min_cycle;Max_cycle;Signal;HPM_P1;HPM_P2
2022/12/05 00:01:58;;;;;;;46.60;23.60;;;;;;;2.02;100.00;101662.66;5047896;28;20092;-58
2022/12/05 00:04:26;;;;;;;51.38;25.67;;;;;;;2.04;100.00;101666.06;5047997;28;20048;-58
2022/12/05 00:06:56;;;;;;;47.90;23.98;;;;;;;2.05;100.00;101660.00;5048257;28;20049;-58
2022/12/05 00:09:24;;;;;;;50.42;25.15;;;;;;;2.09;100.00;101672.03;5048000;28;20518;-58
2022/12/05 00:11:52;;;;;;;49.92;25.42;;;;;;;2.09;100.00;101663.41;5048099;28;20053;-59
2022/12/05 00:14:20;;;;;;;51.03;26.13;;;;;;;2.07;100.00;101668.59;5047386;28;20128;-59
2022/12/05 00:16:48;;;;;;;51.97;26.13;;;;;;;2.03;100.00;101665.22;5046975;28;20049;-58
2022/12/05 00:19:16;;;;;;;52.92;26.20;;;;;;;2.07;100.00;101659.97;5047689;28;20087;-57
2022/12/05 00:21:47;;;;;;;54.60;27.50;;;;;;;2.01;100.00;101664.38;5054321;28;20084;-57
2022/12/05 00:24:18;;;;;;;53.22;27.05;;;;;;;2.02;100.00;101657.47;5051948;28;20057;-57
2022/12/05 00:26:46;;;;;;;54.25;25.42;;;;;;;2.06;100.00;101664.31;5051941;28;20073;-57
2022/12/05 00:29:14;;;;;;;53.15;25.42;;;;;;;2.12;100.00;101659.00;5051306;28;20045;-58
2022/12/05 00:31:42;;;;;;;52.38;26.92;;;;;;;2.11;100.00;101659.03;5050729;28;20045;-58
2022/12/05 00:34:11;;;;;;;55.80;26.65;;;;;;;2.06;100.00;101656.53;5051847;28;20045;-57
2022/12/05 00:36:39;;;;;;;53.80;27.38;;;;;;;2.10;100.00;101654.72;5051668;28;20135;-58
2022/12/05 00:39:10;;;;;;;56.15;26.42;;;;;;;2.14;100.00;101654.66;5054559;28;20052;-58
2022/12/05 00:41:39;;;;;;;57.53;27.55;;;;;;;2.13;100.00;101652.94;5051771;28;20079;-57
2022/12/05 00:44:08;;;;;;;56.53;27.50;;;;;;;2.08;100.00;101656.50;5053498;28;20057;-58
2022/12/05 00:46:36;;;;;;;55.75;27.55;;;;;;;2.05;100.00;101660.00;5051787;28;20082;-58
2022/12/05 00:49:06;;;;;;;58.15;26.85;;;;;;;2.12;100.00;101659.00;5051509;28;20095;-58
2022/12/05 00:51:37;;;;;;;59.03;27.98;;;;;;;2.07;100.00;101654.78;5051128;28;20123;-58
2022/12/05 00:54:08;;;;;;;56.30;27.85;;;;;;;2.08;100.00;101646.97;5051204;28;20048;-58
2022/12/05 00:56:36;;;;;;;60.85;28.27;;;;;;;2.07;100.00;101654.78;5053257;28;20396;-57
2022/12/05 00:59:07;;;;;;;56.83;28.27;;;;;;;2.06;100.00;101647.88;5055084;28;20045;-58
2022/12/05 01:01:38;;;;;;;55.97;26.73;;;;;;;2.03;100.00;101647.06;5050425;28;20053;-58
2022/12/05 01:04:09;;;;;;;58.53;27.70;;;;;;;2.18;100.00;101643.34;5051430;28;20120;-58
2022/12/05 01:06:38;;;;;;;61.97;28.92;;;;;;;2.16;100.00;101649.44;5050426;28;20559;-57
2022/12/05 01:09:06;;;;;;;58.10;26.70;;;;;;;2.22;100.00;101649.31;5051511;28;20151;-59
2022/12/05 01:11:35;;;;;;;59.40;28.67;;;;;;;2.13;100.00;101652.09;5050841;28;20503;-57
2022/12/05 01:14:10;;;;;;;53.28;27.00;;;;;;;2.15;100.00;101648.56;5050618;28;20111;-57
2022/12/05 01:16:40;;;;;;;57.80;26.00;;;;;;;2.13;100.00;101655.53;5049884;28;20045;-58
2022/12/05 01:19:12;;;;;;;57.08;28.92;;;;;;;2.17;100.00;101659.78;5054394;28;20040;-57
2022/12/05 01:21:40;;;;;;;56.53;27.38;;;;;;;2.17;100.00;101654.59;5054604;28;20056;-58
2022/12/05 01:24:09;;;;;;;60.22;28.17;;;;;;;2.15;100.00;101669.31;5051993;28;20057;-57
2022/12/05 01:26:38;;;;;;;58.20;27.08;;;;;;;2.18;100.00;101663.22;5050755;28;20258;-57
2022/12/05 01:29:06;;;;;;;58.38;28.02;;;;;;;2.13;100.00;101665.91;5050399;28;20498;-57
2022/12/05 01:31:37;;;;;;;56.65;27.55;;;;;;;2.16;100.00;101658.06;5048524;28;20071;-58
2022/12/05 01:34:10;;;;;;;53.97;27.60;;;;;;;2.11;100.00;101662.47;5052727;28;20067;-58
2022/12/05 01:36:39;;;;;;;54.17;25.55;;;;;;;2.15;100.00;101658.94;5054403;28;20057;-57
2022/12/05 01:39:08;;;;;;;57.17;27.77;;;;;;;2.20;100.00;101656.28;5054282;28;20048;-58
2022/12/05 01:41:39;;;;;;;55.80;25.90;;;;;;;2.17;100.00;101669.31;5054190;28;20053;-58
2022/12/05 01:44:23;;;;;;;58.83;26.50;;;;;;;2.27;100.00;101670.03;5054171;28;20049;-57
2022/12/05 01:46:54;;;;;;;59.63;26.88;;;;;;;2.20;100.00;101664.91;5053708;28;20526;-57
2022/12/05 01:49:26;;;;;;;50.33;24.33;;;;;;;2.21;100.00;101668.38;5050960;28;20076;-57
2022/12/05 01:51:58;;;;;;;53.67;25.38;;;;;;;2.18;100.00;101671.00;5050518;28;20045;-57
2022/12/05 01:54:27;;;;;;;55.75;25.83;;;;;;;2.25;100.00;101663.97;5051215;28;20511;-57
2022/12/05 01:56:58;;;;;;;56.05;26.65;;;;;;;2.27;100.00;101676.06;5053903;28;20098;-57
2022/12/05 01:59:29;;;;;;;53.75;26.58;;;;;;;2.20;100.00;101672.72;5053865;28;20450;-57
2022/12/05 02:01:59;;;;;;;49.33;24.48;;;;;;;2.26;100.00;101670.91;5053644;28;20048;-58
2022/12/05 02:04:28;;;;;;;54.70;26.88;;;;;;;2.17;100.00;101670.16;5052418;28;20115;-57
2022/12/05 02:06:58;;;;;;;54.33;26.20;;;;;;;2.19;100.00;101672.72;5053787;28;20075;-58
2022/12/05 02:09:26;;;;;;;57.30;26.05;;;;;;;2.18;100.00;101677.09;5053586;28;20091;-57
2022/12/05 02:11:58;;;;;;;50.45;25.98;;;;;;;2.24;100.00;101677.88;5051007;28;20049;-57
2022/12/05 02:14:33;;;;;;;56.10;26.08;;;;;;;2.25;100.00;101671.78;5048943;28;20412;-57
2022/12/05 02:17:09;;;;;;;58.20;27.40;;;;;;;2.23;100.00;101677.00;5047931;28;20041;-58
2022/12/05 02:20:03;;;;;;;58.50;26.35;;;;;;;2.20;100.00;101675.31;5049834;28;20033;-57
2022/12/05 02:23:06;;;;;;;51.63;25.77;;;;;;;2.22;100.00;101674.44;5051730;28;20462;-57
2022/12/05 02:26:08;;;;;;;52.63;26.23;;;;;;;2.31;100.00;101666.50;5053152;28;20385;-58
2022/12/05 02:28:52;;;;;;;54.80;26.98;;;;;;;2.29;100.00;101668.25;5053548;28;20048;-57
2022/12/05 02:31:27;;;;;;;51.80;27.33;;;;;;;2.28;100.00;101671.75;5053109;28;20483;-57
2022/12/05 02:34:02;;;;;;;54.53;26.55;;;;;;;2.33;100.00;101667.31;5052789;28;20123;-57
2022/12/05 02:36:41;;;;;;;56.75;28.48;;;;;;;2.33;100.00;101668.19;5051171;28;20551;-57
2022/12/05 02:39:17;;;;;;;48.17;25.02;;;;;;;2.33;100.00;101665.59;5049459;28;20122;-58
2022/12/05 02:41:51;;;;;;;53.70;24.75;;;;;;;2.36;100.00;101668.13;5049681;28;20492;-57
2022/12/05 02:44:25;;;;;;;53.67;25.73;;;;;;;2.38;100.00;101665.50;5048073;28;20106;-58
2022/12/05 02:46:56;;;;;;;50.58;25.60;;;;;;;2.31;100.00;101667.34;5047859;28;20087;-57
2022/12/05 02:49:30;;;;;;;49.90;25.10;;;;;;;2.41;100.00;101660.22;5048792;28;20044;-58
2022/12/05 02:52:01;;;;;;;55.20;26.02;;;;;;;2.40;100.00;101666.34;5049302;28;20495;-57
2022/12/05 02:54:35;;;;;;;52.67;27.83;;;;;;;2.41;100.00;101667.19;5048178;28;20557;-57
2022/12/05 02:57:04;;;;;;;50.13;24.17;;;;;;;2.41;100.00;101667.19;5050168;28;20049;-57
2022/12/05 02:59:32;;;;;;;49.33;24.77;;;;;;;2.44;100.00;101673.19;5052556;28;20076;-57
2022/12/05 03:02:02;;;;;;;52.40;25.83;;;;;;;2.50;100.00;101667.84;5052790;28;20131;-57
2022/12/05 03:04:31;;;;;;;54.30;25.70;;;;;;;2.54;100.00;101672.13;5052365;28;20060;-57
2022/12/05 03:07:03;;;;;;;54.20;26.27;;;;;;;2.54;100.00;101672.13;5052340;28;20045;-56
2022/12/05 03:09:35;;;;;;;46.53;24.23;;;;;;;2.55;100.00;101665.19;5052661;28;20106;-57
2022/12/05 03:12:10;;;;;;;51.55;24.95;;;;;;;2.51;100.00;101664.38;5050966;28;20068;-56
2022/12/05 03:14:43;;;;;;;53.35;26.20;;;;;;;2.56;100.00;101673.84;5047648;28;20045;-57
2022/12/05 03:17:18;;;;;;;46.40;24.05;;;;;;;2.54;100.00;101672.13;5051795;28;20522;-56
2022/12/05 03:19:53;;;;;;;54.03;25.08;;;;;;;2.62;100.00;101671.09;5051098;28;20041;-57
2022/12/05 03:22:28;;;;;;;47.22;25.13;;;;;;;2.65;100.00;101673.66;5048588;28;20522;-57
2022/12/05 03:24:56;;;;;;;47.30;24.65;;;;;;;2.62;100.00;101678.91;5051224;28;20079;-57
2022/12/05 03:27:28;;;;;;;50.92;24.67;;;;;;;2.63;100.00;101675.41;5047882;28;20052;-56
2022/12/05 03:30:00;;;;;;;;;;;;;;;2.58;100.00;101674.66;5048957;28;20504;-57
2022/12/05 03:32:37;;;;;;;51.70;23.83;;;;;;;2.62;100.00;101673.69;5052424;28;19967;-57
2022/12/05 03:35:11;;;;;;;47.53;23.27;;;;;;;2.61;100.00;101675.47;5050629;28;20138;-57
2022/12/05 03:37:47;;;;;;;48.22;23.65;;;;;;;2.57;100.00;101681.59;5047616;28;20081;-56
2022/12/05 03:40:31;;;;;;;50.42;23.90;;;;;;;2.69;100.00;101677.91;5051926;28;20060;-57
2022/12/05 03:43:07;;;;;;;44.08;23.13;;;;;;;2.73;100.00;101684.78;5052041;28;20052;-57
2022/12/05 03:45:39;;;;;;;50.20;25.02;;;;;;;2.63;100.00;101683.22;5052006;28;20737;-57
2022/12/05 03:48:15;;;;;;;50.58;24.45;;;;;;;2.57;100.00;101681.59;5051631;28;20060;-56
2022/12/05 03:50:47;;;;;;;45.88;23.50;;;;;;;2.72;100.00;101690.84;5049373;28;20404;-56
2022/12/05 03:53:20;;;;;;;50.78;24.13;;;;;;;2.64;100.00;101680.59;5048609;28;20049;-54
2022/12/05 03:55:54;;;;;;;56.22;25.50;;;;;;;2.67;100.00;101685.75;5051328;28;20122;-57
2022/12/05 03:58:28;;;;;;;47.58;24.80;;;;;;;2.69;100.00;101689.16;5051858;28;20450;-56
2022/12/05 04:00:58;;;;;;;45.53;23.73;;;;;;;2.67;100.00;101683.16;5055474;28;20083;-55
2022/12/05 04:03:41;;;;;;;53.10;25.33;;;;;;;2.68;100.00;101682.25;5052268;28;20045;-55
2022/12/05 04:06:17;;;;;;;51.67;24.35;;;;;;;2.65;100.00;101691.84;5053063;28;20393;-54
2022/12/05 04:08:50;;;;;;;49.28;23.70;;;;;;;2.64;100.00;101685.78;5053975;28;20380;-56
2022/12/05 04:11:27;;;;;;;52.53;26.08;;;;;;;2.65;100.00;101686.66;5055716;28;20103;-55
2022/12/05 04:13:59;;;;;;;50.20;25.13;;;;;;;2.73;100.00;101682.16;5055836;28;20107;-55
2022/12/05 04:19:25;;;;;;;55.53;26.00;;;;;;;2.71;100.00;101686.53;5054379;28;20108;-55
2022/12/05 04:21:55;;;;;;;54.45;26.10;;;;;;;2.68;100.00;101686.59;5055391;28;20060;-56
2022/12/05 04:27:25;;;;;;;55.72;27.00;;;;;;;2.68;100.00;101690.03;5051964;28;20515;-56
2022/12/05 04:30:01;;;;;;;48.28;25.02;;;;;;;2.69;100.00;101691.75;5050407;28;20503;-56
2022/12/05 04:32:37;;;;;;;50.20;24.52;;;;;;;2.68;100.00;101689.19;5051863;28;20049;-56
2022/12/05 04:35:14;;;;;;;51.08;25.08;;;;;;;2.67;100.00;101687.47;5052409;28;20381;-56
2022/12/05 04:37:48;;;;;;;48.95;24.45;;;;;;;2.73;100.00;101687.38;5054289;28;20067;-55
2022/12/05 04:40:22;;;;;;;50.17;24.70;;;;;;;2.76;100.00;101684.69;5055202;28;20051;-56
2022/12/05 04:42:54;;;;;;;51.47;24.83;;;;;;;2.75;100.00;101684.75;5052027;28;20044;-56
2022/12/05 04:45:25;;;;;;;49.72;24.38;;;;;;;2.79;100.00;101684.63;5051014;28;20045;-56
2022/12/05 04:47:57;;;;;;;44.03;24.57;;;;;;;2.78;100.00;101684.66;5053644;28;20045;-57
2022/12/05 04:50:31;;;;;;;48.38;24.58;;;;;;;2.76;100.00;101684.69;5051180;28;20049;-54
2022/12/05 04:53:01;;;;;;;49.13;22.83;;;;;;;2.82;100.00;101686.31;5051768;28;20128;-56
2022/12/05 04:55:33;;;;;;;47.78;25.20;;;;;;;2.76;100.00;101681.25;5053785;28;20492;-55
2022/12/05 04:58:07;;;;;;;47.67;24.08;;;;;;;2.76;100.00;101687.31;5051481;28;20088;-57
2022/12/05 05:00:43;;;;;;;44.13;23.65;;;;;;;2.77;100.00;101691.63;5049326;28;20063;-56
2022/12/05 05:03:16;;;;;;;44.50;23.83;;;;;;;2.81;100.00;101688.06;5051498;28;20568;-55
2022/12/05 05:05:48;;;;;;;47.42;24.67;;;;;;;2.77;100.00;101690.75;5051050;28;20049;-56
2022/12/05 05:08:18;;;;;;;47.70;24.40;;;;;;;2.69;100.00;101683.97;5052257;28;20056;-56
2022/12/05 05:10:57;;;;;;;45.20;23.63;;;;;;;2.74;100.00;101688.22;5054443;28;20389;-56
2022/12/05 05:13:25;;;;;;;46.33;23.67;;;;;;;2.75;100.00;101690.78;5054678;28;20499;-56
2022/12/05 05:15:53;;;;;;;46.83;22.48;;;;;;;2.85;100.00;101696.66;5054249;28;20045;-56
2022/12/05 05:18:21;;;;;;;46.35;23.77;;;;;;;2.85;100.00;101696.66;5049861;28;20045;-56
2022/12/05 05:20:51;;;;;;;44.15;22.73;;;;;;;2.82;100.00;101689.78;5050300;28;20064;-56
2022/12/05 05:23:19;;;;;;;47.85;24.27;;;;;;;2.76;100.00;101691.66;5050482;28;20077;-56
2022/12/05 05:25:52;;;;;;;41.35;22.15;;;;;;;2.85;100.00;101691.44;5050479;28;20053;-56
2022/12/05 05:28:20;;;;;;;45.67;24.17;;;;;;;2.83;100.00;101701.88;5050624;28;20091;-56
2022/12/05 05:30:49;;;;;;;44.53;23.98;;;;;;;2.87;100.00;101702.69;5049361;28;20056;-56
2022/12/05 05:33:17;;;;;;;41.65;23.58;;;;;;;2.87;100.00;101695.72;5051653;28;20120;-57
2022/12/05 05:35:45;;;;;;;41.97;22.55;;;;;;;2.85;100.00;101700.13;5052121;28;20132;-56
2022/12/05 05:38:14;;;;;;;44.20;23.50;;;;;;;2.87;100.00;101694.88;5043993;28;20516;-56
2022/12/05 05:40:42;;;;;;;45.10;23.77;;;;;;;2.92;100.00;101699.97;5043431;28;20053;-56
2022/12/05 05:43:10;;;;;;;43.30;21.65;;;;;;;3.01;100.00;101708.47;5040122;28;20501;-55
2022/12/05 05:45:39;;;;;;;48.40;23.98;;;;;;;2.90;100.00;101701.78;5040691;28;20049;-56
2022/12/05 05:48:07;;;;;;;36.85;21.25;;;;;;;2.92;100.00;101703.47;5044033;28;20599;-57
2022/12/05 05:50:35;;;;;;;44.03;22.40;;;;;;;2.86;100.00;101693.16;5043416;28;20403;-56
2022/12/05 05:53:03;;;;;;;41.67;21.77;;;;;;;2.88;100.00;101697.47;5052495;28;20047;-56
2022/12/05 05:55:32;;;;;;;43.08;21.77;;;;;;;2.90;100.00;101697.41;5079063;28;20050;-56
2022/12/05 05:58:00;;;;;;;43.88;23.77;;;;;;;2.87;100.00;101700.94;5045901;28;20044;-55
2022/12/05 06:00:28;;;;;;;40.78;21.60;;;;;;;2.88;100.00;101707.00;5043775;28;20042;-57
2022/12/05 06:02:57;;;;;;;42.75;22.10;;;;;;;2.94;100.00;101706.03;5049228;28;20044;-56
2022/12/05 06:05:25;;;;;;;39.50;21.58;;;;;;;2.88;100.00;101705.25;5047580;28;20042;-54
2022/12/05 06:07:53;;;;;;;42.80;22.13;;;;;;;2.88;100.00;101707.84;5033721;28;20042;-56
2022/12/05 06:10:22;;;;;;;41.50;22.17;;;;;;;2.95;100.00;101710.34;5045707;28;20076;-55
2022/12/05 06:12:52;;;;;;;42.88;23.38;;;;;;;2.92;100.00;101711.25;5050411;28;20052;-56
2022/12/05 06:15:20;;;;;;;42.05;23.75;;;;;;;2.90;100.00;101705.22;5047468;28;20497;-56
2022/12/05 06:17:48;;;;;;;40.38;22.48;;;;;;;2.97;100.00;101706.84;5043251;28;20048;-56
2022/12/05 06:20:16;;;;;;;40.40;22.40;;;;;;;3.06;100.00;101710.97;5033916;28;20045;-56
2022/12/05 06:22:44;;;;;;;46.05;23.02;;;;;;;2.97;100.00;101704.22;5032981;28;20095;-56
2022/12/05 06:25:12;;;;;;;42.60;23.42;;;;;;;2.93;100.00;101705.19;5052935;28;20053;-54
2022/12/05 06:27:41;;;;;;;42.97;23.50;;;;;;;2.95;100.00;101700.78;5052351;28;20075;-56
2022/12/05 06:30:11;;;;;;;37.75;22.08;;;;;;;2.98;100.00;101708.53;5048024;28;20099;-54
2022/12/05 06:32:39;;;;;;;42.47;22.55;;;;;;;2.98;100.00;101707.69;5049402;28;20045;-56
2022/12/05 06:35:14;;;;;;;43.47;23.23;;;;;;;2.98;100.00;101708.53;5048642;28;20124;-56
2022/12/05 06:37:43;;;;;;;40.60;22.08;;;;;;;3.02;100.00;101710.16;5051803;28;20522;-55
2022/12/05 06:40:12;;;;;;;35.90;21.83;;;;;;;2.99;100.00;101715.44;5049494;28;20898;-54
2022/12/05 06:42:41;;;;;;;39.17;21.63;;;;;;;3.01;100.00;101707.59;5050097;28;20049;-56
2022/12/05 06:45:12;;;;;;;39.35;22.67;;;;;;;3.01;100.00;101711.09;5048744;28;20083;-56
2022/12/05 06:47:40;;;;;;;38.20;21.58;;;;;;;3.00;100.00;101724.97;5049673;28;20111;-57
2022/12/05 06:50:09;;;;;;;40.15;21.58;;;;;;;2.98;100.00;101718.91;5048032;28;20056;-56
2022/12/05 06:52:37;;;;;;;42.17;23.30;;;;;;;2.96;100.00;101719.81;5051492;28;20492;-57
2022/12/05 06:55:06;;;;;;;41.60;22.15;;;;;;;3.02;100.00;101724.94;5052729;28;20504;-56
2022/12/05 06:57:35;;;;;;;44.20;22.88;;;;;;;3.00;100.00;101726.69;5052743;28;20107;-57
2022/12/05 07:02:50;;;;;;;41.65;22.23;;;;;;;3.07;100.00;101728.28;5029953;28;20049;-56
2022/12/05 07:05:18;;;;;;;39.53;22.27;;;;;;;3.06;100.00;101736.97;5031180;28;20049;-58
2022/12/05 07:07:46;;;;;;;39.70;21.77;;;;;;;3.08;100.00;101732.63;5032825;28;20037;-55
2022/12/05 07:10:15;;;;;;;39.92;22.00;;;;;;;3.06;100.00;101742.16;5054738;28;20044;-56
2022/12/05 07:12:43;;;;;;;40.55;22.20;;;;;;;3.06;100.00;101736.97;5059690;28;20060;-56
2022/12/05 07:15:11;;;;;;;44.80;22.38;;;;;;;3.02;100.00;101740.53;5052306;28;20095;-55
2022/12/05 07:17:40;;;;;;;41.25;22.58;;;;;;;3.03;100.00;101734.44;5051413;28;20052;-55
2022/12/05 07:20:11;;;;;;;39.97;21.98;;;;;;;3.04;100.00;101733.53;5049435;28;20048;-56
2022/12/05 07:22:39;;;;;;;43.70;23.50;;;;;;;3.03;100.00;101735.28;5048243;28;20052;-56
2022/12/05 07:25:08;;;;;;;37.95;21.83;;;;;;;3.09;100.00;101736.06;5048486;28;20102;-56
2022/12/05 07:27:39;;;;;;;38.03;21.50;;;;;;;3.07;100.00;101743.88;5049022;28;20041;-55
2022/12/05 07:30:08;;;;;;;37.00;22.25;;;;;;;3.11;100.00;101739.47;5045240;28;20503;-55
2022/12/05 07:32:36;;;;;;;37.00;21.35;;;;;;;3.06;100.00;101741.31;5050702;28;20071;-54
2022/12/05 07:35:05;;;;;;;35.38;20.98;;;;;;;3.04;100.00;101738.72;5051075;28;20075;-54
2022/12/05 07:37:34;;;;;;;35.88;20.67;;;;;;;3.07;100.00;101743.88;5048928;28;20083;-56
2022/12/05 07:40:02;;;;;;;37.72;20.98;;;;;;;3.06;100.00;101751.72;5048872;28;20045;-53
2022/12/05 07:42:31;;;;;;;35.75;21.58;;;;;;;3.09;100.00;101747.31;5052027;28;20434;-56
2022/12/05 07:44:59;;;;;;;35.75;21.67;;;;;;;3.15;100.00;101755.00;5048529;28;20073;-51
2022/12/05 07:47:29;;;;;;;37.17;21.45;;;;;;;3.20;100.00;101760.97;5048229;28;20526;-49
2022/12/05 07:49:57;;;;;;;35.60;19.60;;;;;;;3.24;100.00;101760.91;5051027;28;20052;-50
2022/12/05 07:52:27;;;;;;;34.25;19.85;;;;;;;3.26;100.00;101762.59;5051012;28;20060;-51
2022/12/05 07:54:57;;;;;;;33.30;19.00;;;;;;;3.19;100.00;101760.97;5048543;28;20507;-53
2022/12/05 07:57:29;;;;;;;;;;;;;;;3.22;100.00;101763.53;5049269;28;20056;-48
2022/12/05 07:59:57;;;;;;;34.03;19.67;;;;;;;3.13;100.00;101759.34;5052226;28;19921;-49
2022/12/05 08:02:26;;;;;;;35.05;21.13;;;;;;;3.18;100.00;101770.53;5051884;28;20059;-50
2022/12/05 08:04:54;;;;;;;32.15;18.98;;;;;;;3.18;100.00;101765.31;5052052;28;20083;-48
2022/12/05 08:07:22;;;;;;;32.97;19.77;;;;;;;3.17;100.00;101766.19;5050383;28;20080;-49
2022/12/05 08:09:50;;;;;;;33.60;19.85;;;;;;;3.11;100.00;101766.34;5047980;28;20876;-49
2022/12/05 08:12:19;;;;;;;35.10;19.75;;;;;;;3.14;100.00;101765.44;5050589;28;20033;-47
2022/12/05 08:14:47;;;;;;;31.55;18.80;;;;;;;3.18;100.00;101775.72;5052004;28;20052;-51
2022/12/05 08:17:16;;;;;;;33.22;20.00;;;;;;;3.17;100.00;101771.41;5046412;28;20107;-47
2022/12/05 08:19:44;;;;;;;31.00;19.67;;;;;;;3.22;100.00;101771.34;5049246;28;20369;-49
2022/12/05 08:22:14;;;;;;;35.03;21.23;;;;;;;3.13;100.00;101772.34;5051788;28;20069;-52
2022/12/05 08:24:42;;;;;;;33.47;19.83;;;;;;;3.22;100.00;101779.97;5051609;28;20488;-48
2022/12/05 08:27:10;;;;;;;37.63;19.65;;;;;;;3.29;100.00;101779.88;5051623;28;20060;-48
2022/12/05 08:29:40;;;;;;;34.78;20.60;;;;;;;3.30;100.00;101778.97;5047468;28;20575;-50
2022/12/05 08:32:08;;;;;;;31.90;19.73;;;;;;;3.27;100.00;101787.69;5048124;28;20369;-51
2022/12/05 08:34:37;;;;;;;34.70;21.10;;;;;;;3.34;100.00;101789.28;5051958;28;20114;-52
2022/12/05 08:37:05;;;;;;;36.53;21.67;;;;;;;3.22;100.00;101789.53;5051826;28;20451;-50
2022/12/05 08:39:35;;;;;;;40.42;22.38;;;;;;;3.22;100.00;101789.53;5051336;28;20072;-48
2022/12/05 08:42:05;;;;;;;37.05;21.63;;;;;;;3.33;100.00;101794.53;5052842;28;20049;-49
2022/12/05 08:44:34;;;;;;;38.75;21.75;;;;;;;3.29;100.00;101801.53;5055210;28;20381;-49
2022/12/05 08:47:04;;;;;;;36.10;20.80;;;;;;;3.33;100.00;101797.13;5053869;28;20528;-48
2022/12/05 08:49:32;;;;;;;35.95;21.83;;;;;;;3.33;100.00;101802.31;5055082;28;20056;-55
2022/12/05 08:52:00;;;;;;;42.78;22.20;;;;;;;3.28;100.00;101798.94;5055098;28;20045;-54
2022/12/05 08:54:28;;;;;;;35.95;21.75;;;;;;;3.35;100.00;101803.13;5053830;28;20056;-50
2022/12/05 08:56:58;;;;;;;37.30;21.48;;;;;;;3.38;100.00;101803.94;5055094;28;20103;-49
2022/12/05 08:59:26;;;;;;;41.47;22.17;;;;;;;3.33;100.00;101810.13;5054762;28;20056;-47
2022/12/05 09:01:54;;;;;;;39.65;22.10;;;;;;;3.36;100.00;101807.47;5054857;28;20439;-47
2022/12/05 09:04:24;;;;;;;35.55;21.13;;;;;;;3.37;100.00;101798.78;5055120;28;20106;-51
2022/12/05 09:06:52;;;;;;;39.22;23.02;;;;;;;3.41;100.00;101804.75;5054921;28;20083;-46
2022/12/05 09:09:21;;;;;;;35.92;21.60;;;;;;;3.40;100.00;101809.13;5053608;28;20053;-48
2022/12/05 09:11:49;;;;;;;36.08;20.73;;;;;;;3.41;100.00;101810.84;5051651;28;20441;-50
2022/12/05 09:14:18;;;;;;;33.03;20.85;;;;;;;3.37;100.00;101815.22;5052320;28;20055;-52
2022/12/05 09:16:47;;;;;;;36.85;21.00;;;;;;;3.44;100.00;101815.97;5054939;28;20045;-50
2022/12/05 09:19:17;;;;;;;38.55;21.63;;;;;;;3.47;100.00;101818.50;5054732;28;20055;-52
2022/12/05 09:21:47;;;;;;;36.10;20.58;;;;;;;3.51;100.00;101817.53;5054722;28;20496;-51
2022/12/05 09:24:15;;;;;;;35.00;20.20;;;;;;;3.49;100.00;101814.13;5050800;28;20044;-51
2022/12/05 09:26:43;;;;;;;31.10;19.67;;;;;;;3.52;100.00;101819.28;5050681;28;20508;-51
2022/12/05 09:29:13;;;;;;;36.70;20.70;;;;;;;3.48;100.00;101824.56;5052911;28;20095;-47
2022/12/05 09:31:47;;;;;;;35.53;21.45;;;;;;;3.52;100.00;101823.63;5054722;28;20381;-48
2022/12/05 09:34:16;;;;;;;36.30;20.85;;;;;;;3.54;100.00;101821.84;5053962;28;20119;-49
2022/12/05 09:36:50;;;;;;;34.45;20.95;;;;;;;3.56;100.00;101830.47;5050083;28;20053;-47
2022/12/05 09:39:39;;;;;;;36.17;21.35;;;;;;;3.52;100.00;101824.47;5052323;28;20052;-48
2022/12/05 09:42:26;;;;;;;34.00;20.50;;;;;;;3.58;100.00;101833.03;5054175;28;20040;-48
2022/12/05 09:45:03;;;;;;;35.25;19.92;;;;;;;3.56;100.00;101838.28;5052907;28;20119;-51
2022/12/05 09:47:45;;;;;;;36.47;20.98;;;;;;;3.62;100.00;101839.91;5049886;28;20091;-47
2022/12/05 09:50:19;;;;;;;35.40;20.30;;;;;;;3.60;100.00;101841.66;5052608;28;20057;-47
2022/12/05 09:53:02;;;;;;;35.35;19.88;;;;;;;3.60;100.00;101842.53;5053767;28;20049;-51
2022/12/05 09:55:39;;;;;;;35.20;20.65;;;;;;;3.60;100.00;101847.75;5049627;28;20140;-48
2022/12/05 09:58:20;;;;;;;37.05;20.35;;;;;;;3.61;100.00;101843.38;5050847;28;20045;-49
2022/12/05 10:00:51;;;;;;;36.05;19.77;;;;;;;3.62;100.00;101843.34;5048973;28;20053;-47
2022/12/05 10:03:28;;;;;;;35.08;19.33;;;;;;;3.67;100.00;101846.72;5049870;28;20495;-50
2022/12/05 10:06:08;;;;;;;37.53;22.05;;;;;;;3.65;100.00;101840.69;5050641;28;20049;-47
2022/12/05 10:08:55;;;;;;;33.15;19.42;;;;;;;3.66;100.00;101837.19;5053902;28;20049;-48
2022/12/05 10:11:32;;;;;;;34.63;20.23;;;;;;;3.67;100.00;101838.91;5053622;28;20088;-53
2022/12/05 10:14:07;;;;;;;32.83;18.88;;;;;;;3.70;100.00;101835.41;5048969;28;20098;-54
2022/12/05 10:16:40;;;;;;;33.72;19.38;;;;;;;3.68;100.00;101834.56;5048093;28;20068;-53
2022/12/05 10:19:13;;;;;;;31.90;19.52;;;;;;;3.70;100.00;101838.00;5051666;28;20037;-55
2022/12/05 10:21:45;;;;;;;;;;;;;;;3.69;100.00;101834.53;5049380;28;20119;-53
2022/12/05 10:24:22;;;;;;;31.67;18.33;;;;;;;3.81;100.00;101836.03;5049362;28;19970;-54
2022/12/05 10:26:55;;;;;;;29.58;17.83;;;;;;;3.81;100.00;101835.19;5050357;28;20053;-54
2022/12/05 10:29:29;;;;;;;29.73;18.85;;;;;;;3.79;100.00;101831.72;5052725;28;20044;-54
2022/12/05 10:32:07;;;;;;;34.58;19.75;;;;;;;3.81;100.00;101840.38;5050735;28;20091;-54
2022/12/05 10:34:41;;;;;;;30.48;18.73;;;;;;;3.82;100.00;101835.13;5048698;28;20056;-53
2022/12/05 10:37:13;;;;;;;31.00;18.85;;;;;;;3.79;100.00;101826.53;5049846;28;20103;-53
2022/12/05 10:39:44;;;;;;;32.88;19.23;;;;;;;3.78;100.00;101830.88;5049412;28;20135;-53
2022/12/05 10:42:15;;;;;;;30.95;19.83;;;;;;;3.86;100.00;101822.94;5049741;28;20053;-52
2022/12/05 10:44:43;;;;;;;30.08;19.52;;;;;;;3.82;100.00;101827.34;5047701;28;20052;-51
2022/12/05 10:47:14;;;;;;;30.85;19.23;;;;;;;3.79;100.00;101831.72;5052242;28;20051;-52
2022/12/05 10:49:42;;;;;;;31.13;19.15;;;;;;;3.82;100.00;101819.53;5052995;28;20480;-54
2022/12/05 10:52:13;;;;;;;30.23;19.15;;;;;;;3.84;100.00;101816.88;5052683;28;20079;-52
2022/12/05 10:54:46;;;;;;;31.50;19.17;;;;;;;3.86;100.00;101818.56;5052598;28;20495;-54
2022/12/05 10:57:23;;;;;;;31.83;19.05;;;;;;;3.84;100.00;101815.13;5052668;28;20423;-52
2022/12/05 10:59:55;;;;;;;27.65;18.25;;;;;;;3.89;100.00;101818.50;5047670;28;20268;-54
2022/12/05 11:02:26;;;;;;;26.83;17.48;;;;;;;3.97;100.00;101818.34;5048415;28;20037;-53
2022/12/05 11:04:57;;;;;;;30.48;18.60;;;;;;;3.98;100.00;101812.25;5050321;28;20496;-53
2022/12/05 11:07:30;;;;;;;26.23;16.73;;;;;;;3.99;100.00;101813.94;5052536;28;20376;-54
2022/12/05 11:10:02;;;;;;;27.85;17.67;;;;;;;3.94;100.00;101810.59;5049556;28;20049;-52
2022/12/05 11:12:37;;;;;;;27.83;16.83;;;;;;;3.91;100.00;101815.00;5049121;28;20080;-54
2022/12/05 11:15:21;;;;;;;26.67;17.33;;;;;;;3.96;100.00;101808.81;5049633;28;20094;-55
2022/12/05 11:17:50;;;;;;;22.42;15.32;;;;;;;3.92;100.00;101806.31;5049190;28;20095;-54
2022/12/05 11:20:39;;;;;;;22.42;14.48;;;;;;;3.93;100.00;101808.88;5051309;28;20131;-51
2022/12/05 11:23:26;;;;;;;21.17;13.90;;;;;;;3.87;100.00;101803.81;5051767;28;20057;-52
2022/12/05 11:25:58;;;;;;;19.77;14.35;;;;;;;3.89;100.00;101807.25;5047418;28;20049;-54
2022/12/05 11:28:37;;;;;;;22.88;14.93;;;;;;;3.92;100.00;101804.56;5048374;28;20052;-51
2022/12/05 11:31:16;;;;;;;22.88;15.02;;;;;;;3.88;100.00;101805.53;5047530;28;20072;-53
2022/12/05 11:34:01;;;;;;;22.10;14.13;;;;;;;3.93;100.00;101810.63;5052616;28;20457;-53
2022/12/05 11:36:37;;;;;;;19.77;13.25;;;;;;;3.94;100.00;101809.72;5050027;28;20049;-54
2022/12/05 11:39:05;;;;;;;19.38;12.93;;;;;;;3.89;100.00;101809.84;5048835;28;20519;-53